MAS721 WIII-WMKK
Flight info
| Callsign | MAS721 |
|---|---|
| Flight time | N/A |
| Altitude | 38000 |
| Route | DOLTA A585 PKU/N0471F370 N633 SALAX SALAX1G |
| Aircraft | B738/M-SDE2E3FGHIRWXY/LB1 |
Departure
| Time | 2026-05-06 14:14 |
|---|---|
| Airport | Soekarno-Hatta International Airport (WIII) |
Arrival
| Time | N/A |
|---|---|
| Airport | Kuala Lumpur International Airport (WMKK) |
| Time | Latitude | Longitude | Altitude | Speed | Heading |
|---|---|---|---|---|---|
| 2026-05-06 13:40 | -6.11885 | 106.66154 | 37 ft | 0 kts | 114° |
| 2026-05-06 14:01 | -6.11878 | 106.66140 | 36 ft | 4 kts | 123° |
| 2026-05-06 14:01 | -6.11860 | 106.66120 | 36 ft | 4 kts | 144° |
| 2026-05-06 14:01 | -6.11837 | 106.66107 | 35 ft | 4 kts | 162° |
| 2026-05-06 14:02 | -6.11811 | 106.66100 | 33 ft | 4 kts | 159° |
| 2026-05-06 14:02 | -6.11795 | 106.66090 | 34 ft | 2 kts | 114° |
| 2026-05-06 14:02 | -6.11790 | 106.66108 | 36 ft | 4 kts | 63° |
| 2026-05-06 14:02 | -6.11775 | 106.66130 | 36 ft | 3 kts | 62° |
| 2026-05-06 14:03 | -6.11770 | 106.66145 | 35 ft | 0 kts | 248° |
| 2026-05-06 14:07 | -6.11774 | 106.66134 | 36 ft | 4 kts | 249° |
| 2026-05-06 14:07 | -6.11791 | 106.66091 | 34 ft | 8 kts | 248° |
| 2026-05-06 14:07 | -6.11788 | 106.66031 | 37 ft | 9 kts | 301° |
| 2026-05-06 14:07 | -6.11736 | 106.65998 | 35 ft | 9 kts | 336° |
| 2026-05-06 14:08 | -6.11680 | 106.65974 | 37 ft | 9 kts | 337° |
| 2026-05-06 14:08 | -6.11625 | 106.65952 | 37 ft | 8 kts | 338° |
| 2026-05-06 14:08 | -6.11565 | 106.65923 | 37 ft | 12 kts | 334° |
| 2026-05-06 14:08 | -6.11514 | 106.65853 | 37 ft | 15 kts | 265° |
| 2026-05-06 14:09 | -6.11552 | 106.65746 | 37 ft | 17 kts | 246° |
| 2026-05-06 14:09 | -6.11599 | 106.65632 | 35 ft | 19 kts | 248° |
| 2026-05-06 14:09 | -6.11649 | 106.65505 | 36 ft | 21 kts | 246° |
| 2026-05-06 14:09 | -6.11700 | 106.65372 | 38 ft | 21 kts | 243° |
| 2026-05-06 14:10 | -6.11755 | 106.65241 | 38 ft | 20 kts | 249° |
| 2026-05-06 14:10 | -6.11812 | 106.65096 | 38 ft | 24 kts | 248° |
| 2026-05-06 14:10 | -6.11876 | 106.64935 | 37 ft | 25 kts | 246° |
| 2026-05-06 14:10 | -6.11941 | 106.64774 | 38 ft | 24 kts | 248° |
| 2026-05-06 14:11 | -6.12000 | 106.64624 | 38 ft | 23 kts | 248° |
| 2026-05-06 14:11 | -6.12051 | 106.64497 | 36 ft | 17 kts | 248° |
| 2026-05-06 14:11 | -6.12098 | 106.64379 | 38 ft | 19 kts | 248° |
| 2026-05-06 14:11 | -6.12156 | 106.64258 | 38 ft | 19 kts | 240° |
| 2026-05-06 14:12 | -6.12199 | 106.64128 | 38 ft | 20 kts | 246° |
| 2026-05-06 14:12 | -6.12254 | 106.63999 | 37 ft | 20 kts | 250° |
| 2026-05-06 14:12 | -6.12234 | 106.63910 | 38 ft | 7 kts | 314° |
| 2026-05-06 14:12 | -6.12185 | 106.63892 | 40 ft | 8 kts | 5° |
| 2026-05-06 14:13 | -6.12129 | 106.63912 | 40 ft | 10 kts | 27° |
| 2026-05-06 14:13 | -6.12075 | 106.63963 | 39 ft | 12 kts | 58° |
| 2026-05-06 14:13 | -6.12038 | 106.64041 | 38 ft | 13 kts | 69° |
| 2026-05-06 14:13 | -6.11999 | 106.64139 | 38 ft | 19 kts | 69° |
| 2026-05-06 14:14 | -6.11881 | 106.64434 | 40 ft | 81 kts | 68° |
| 2026-05-06 14:14 | -6.11587 | 106.65168 | 41 ft | 143 kts | 67° |
| 2026-05-06 14:14 | -6.11148 | 106.66222 | 240 ft | 177 kts | 68° |
| 2026-05-06 14:14 | -6.10648 | 106.67419 | 804 ft | 191 kts | 66° |
| 2026-05-06 14:15 | -6.09914 | 106.68530 | 1526 ft | 194 kts | 46° |
| 2026-05-06 14:15 | -6.08821 | 106.69357 | 2223 ft | 198 kts | 33° |
| 2026-05-06 14:15 | -6.07626 | 106.69983 | 3100 ft | 191 kts | 27° |
| 2026-05-06 14:15 | -6.06426 | 106.70569 | 3696 ft | 199 kts | 32° |
| 2026-05-06 14:16 | -6.05191 | 106.71347 | 3881 ft | 219 kts | 33° |
| 2026-05-06 14:16 | -6.03665 | 106.71772 | 4015 ft | 244 kts | 357° |
| 2026-05-06 14:16 | -6.02071 | 106.71100 | 4363 ft | 258 kts | 323° |
| 2026-05-06 14:16 | -6.00691 | 106.69888 | 4652 ft | 273 kts | 319° |
| 2026-05-06 14:17 | -5.99280 | 106.68590 | 5111 ft | 283 kts | 318° |
| 2026-05-06 14:17 | -5.97831 | 106.67246 | 5821 ft | 284 kts | 318° |
| 2026-05-06 14:17 | -5.96363 | 106.65900 | 6516 ft | 287 kts | 319° |
| 2026-05-06 14:17 | -5.94874 | 106.64548 | 7162 ft | 291 kts | 318° |
| 2026-05-06 14:18 | -5.93357 | 106.63179 | 7855 ft | 294 kts | 318° |
| 2026-05-06 14:18 | -5.91828 | 106.61800 | 8547 ft | 297 kts | 318° |
| 2026-05-06 14:18 | -5.90271 | 106.60411 | 9257 ft | 301 kts | 319° |
| 2026-05-06 14:18 | -5.88697 | 106.59018 | 9960 ft | 304 kts | 319° |
| 2026-05-06 14:19 | -5.87078 | 106.57589 | 10409 ft | 318 kts | 319° |
| 2026-05-06 14:19 | -5.85363 | 106.56085 | 10559 ft | 340 kts | 319° |
| 2026-05-06 14:19 | -5.83518 | 106.54476 | 10709 ft | 361 kts | 320° |
| 2026-05-06 14:19 | -5.81576 | 106.52788 | 10837 ft | 379 kts | 320° |
| 2026-05-06 14:20 | -5.79538 | 106.51021 | 11069 ft | 392 kts | 320° |
| 2026-05-06 14:20 | -5.77461 | 106.49219 | 11513 ft | 397 kts | 320° |
| 2026-05-06 14:20 | -5.75405 | 106.47427 | 12041 ft | 400 kts | 320° |
| 2026-05-06 14:20 | -5.73311 | 106.45595 | 12575 ft | 403 kts | 319° |
| 2026-05-06 14:21 | -5.71181 | 106.43728 | 13093 ft | 406 kts | 319° |
| 2026-05-06 14:21 | -5.69042 | 106.41852 | 13606 ft | 410 kts | 320° |
| 2026-05-06 14:21 | -5.66916 | 106.39989 | 14079 ft | 413 kts | 319° |
| 2026-05-06 14:21 | -5.64740 | 106.38081 | 14609 ft | 414 kts | 319° |
| 2026-05-06 14:22 | -5.62571 | 106.36179 | 15137 ft | 416 kts | 319° |
| 2026-05-06 14:22 | -5.60381 | 106.34256 | 15647 ft | 418 kts | 319° |
| 2026-05-06 14:22 | -5.58190 | 106.32332 | 16142 ft | 420 kts | 319° |
| 2026-05-06 14:22 | -5.55981 | 106.30395 | 16630 ft | 423 kts | 319° |
| 2026-05-06 14:23 | -5.53753 | 106.28443 | 17083 ft | 426 kts | 319° |
| 2026-05-06 14:23 | -5.51517 | 106.26480 | 17535 ft | 428 kts | 319° |
| 2026-05-06 14:23 | -5.49294 | 106.24531 | 17998 ft | 431 kts | 319° |
| 2026-05-06 14:23 | -5.47031 | 106.22547 | 18411 ft | 432 kts | 319° |
| 2026-05-06 14:24 | -5.44758 | 106.20558 | 18763 ft | 435 kts | 319° |
| 2026-05-06 14:24 | -5.42461 | 106.18548 | 19103 ft | 438 kts | 319° |
| 2026-05-06 14:24 | -5.40157 | 106.16533 | 19460 ft | 441 kts | 320° |
| 2026-05-06 14:24 | -5.37841 | 106.14508 | 19787 ft | 443 kts | 320° |
| 2026-05-06 14:25 | -5.35508 | 106.12468 | 20143 ft | 445 kts | 320° |
| 2026-05-06 14:25 | -5.33165 | 106.10420 | 20471 ft | 447 kts | 320° |
| 2026-05-06 14:25 | -5.30819 | 106.08370 | 20790 ft | 449 kts | 319° |
| 2026-05-06 14:25 | -5.28459 | 106.06308 | 21100 ft | 452 kts | 319° |
| 2026-05-06 14:26 | -5.26083 | 106.04234 | 21399 ft | 454 kts | 319° |
| 2026-05-06 14:26 | -5.23694 | 106.02150 | 21695 ft | 456 kts | 319° |
| 2026-05-06 14:26 | -5.21293 | 106.00057 | 21977 ft | 458 kts | 319° |
| 2026-05-06 14:26 | -5.18883 | 105.97959 | 22241 ft | 460 kts | 320° |
| 2026-05-06 14:27 | -5.16465 | 105.95850 | 22490 ft | 462 kts | 320° |
| 2026-05-06 14:27 | -5.14033 | 105.93722 | 22754 ft | 464 kts | 320° |
| 2026-05-06 14:27 | -5.11486 | 105.91734 | 22868 ft | 467 kts | 328° |
| 2026-05-06 14:27 | -5.08689 | 105.90065 | 22915 ft | 468 kts | 331° |
| 2026-05-06 14:28 | -5.05850 | 105.88460 | 22875 ft | 465 kts | 332° |
| 2026-05-06 14:28 | -5.03061 | 105.86902 | 22898 ft | 465 kts | 332° |
| 2026-05-06 14:28 | -5.01154 | 105.85839 | 22893 ft | 466 kts | 332° |
| 2026-05-06 14:28 | -4.98324 | 105.84254 | 22869 ft | 466 kts | 332° |
| 2026-05-06 14:29 | -4.95495 | 105.82661 | 22894 ft | 466 kts | 331° |
| 2026-05-06 14:29 | -4.92666 | 105.81059 | 22885 ft | 467 kts | 331° |
| 2026-05-06 14:29 | -4.89837 | 105.79452 | 22879 ft | 467 kts | 330° |
| 2026-05-06 14:29 | -4.87009 | 105.77841 | 22880 ft | 467 kts | 331° |
| 2026-05-06 14:30 | -4.84192 | 105.76235 | 22874 ft | 466 kts | 331° |
| 2026-05-06 14:30 | -4.81369 | 105.74626 | 22870 ft | 466 kts | 331° |
| 2026-05-06 14:30 | -4.77637 | 105.72498 | 22873 ft | 466 kts | 331° |
| 2026-05-06 14:30 | -4.75741 | 105.71417 | 22893 ft | 465 kts | 332° |
| 2026-05-06 14:31 | -4.72924 | 105.69812 | 22881 ft | 465 kts | 331° |
| 2026-05-06 14:31 | -4.70111 | 105.68209 | 22884 ft | 465 kts | 331° |
| 2026-05-06 14:31 | -4.67335 | 105.66629 | 22885 ft | 465 kts | 331° |
| 2026-05-06 14:31 | -4.64484 | 105.65000 | 22878 ft | 465 kts | 331° |
| 2026-05-06 14:32 | -4.61718 | 105.63420 | 22878 ft | 465 kts | 331° |
| 2026-05-06 14:32 | -4.58908 | 105.61815 | 22888 ft | 464 kts | 331° |
| 2026-05-06 14:32 | -4.56097 | 105.60211 | 22873 ft | 465 kts | 331° |
| 2026-05-06 14:32 | -4.53289 | 105.58612 | 22891 ft | 464 kts | 331° |
| 2026-05-06 14:33 | -4.50479 | 105.57013 | 22893 ft | 465 kts | 331° |
| 2026-05-06 14:33 | -4.47667 | 105.55414 | 22880 ft | 465 kts | 331° |
| 2026-05-06 14:33 | -4.44858 | 105.53817 | 22878 ft | 465 kts | 331° |
| 2026-05-06 14:33 | -4.42043 | 105.52217 | 22879 ft | 465 kts | 331° |
| 2026-05-06 14:34 | -4.39230 | 105.50618 | 22887 ft | 465 kts | 331° |
| 2026-05-06 14:34 | -4.36418 | 105.49020 | 22877 ft | 465 kts | 331° |
| 2026-05-06 14:34 | -4.33604 | 105.47421 | 22883 ft | 465 kts | 331° |
| 2026-05-06 14:34 | -4.30791 | 105.45822 | 22878 ft | 464 kts | 331° |
| 2026-05-06 14:35 | -4.27986 | 105.44228 | 22876 ft | 464 kts | 331° |
| 2026-05-06 14:35 | -4.25180 | 105.42633 | 22876 ft | 464 kts | 331° |
| 2026-05-06 14:35 | -4.22365 | 105.41034 | 22876 ft | 464 kts | 331° |
| 2026-05-06 14:35 | -4.19560 | 105.39441 | 22877 ft | 464 kts | 331° |
| 2026-05-06 14:36 | -4.16749 | 105.37845 | 22879 ft | 464 kts | 331° |
| 2026-05-06 14:36 | -4.13939 | 105.36250 | 22879 ft | 464 kts | 331° |
| 2026-05-06 14:36 | -4.11127 | 105.34655 | 22879 ft | 464 kts | 331° |
| 2026-05-06 14:36 | -4.08318 | 105.33062 | 22874 ft | 464 kts | 331° |
| 2026-05-06 14:37 | -4.05506 | 105.31468 | 22875 ft | 464 kts | 331° |
| 2026-05-06 14:37 | -4.02704 | 105.29882 | 22887 ft | 464 kts | 331° |
| 2026-05-06 14:37 | -3.99889 | 105.28292 | 22876 ft | 464 kts | 331° |
| 2026-05-06 14:37 | -3.97076 | 105.26705 | 22880 ft | 463 kts | 331° |
| 2026-05-06 14:38 | -3.94271 | 105.25116 | 22873 ft | 463 kts | 331° |
| 2026-05-06 14:38 | -3.91473 | 105.23524 | 22873 ft | 462 kts | 331° |
| 2026-05-06 14:38 | -3.88674 | 105.21929 | 22874 ft | 462 kts | 331° |
| 2026-05-06 14:38 | -3.85878 | 105.20335 | 22869 ft | 462 kts | 331° |
| 2026-05-06 14:39 | -3.83085 | 105.18748 | 22872 ft | 462 kts | 331° |
| 2026-05-06 14:39 | -3.80295 | 105.17168 | 22876 ft | 462 kts | 331° |
| 2026-05-06 14:39 | -3.77527 | 105.15605 | 22878 ft | 462 kts | 331° |
| 2026-05-06 14:39 | -3.74729 | 105.14029 | 22880 ft | 462 kts | 331° |
| 2026-05-06 14:40 | -3.71928 | 105.12452 | 22876 ft | 462 kts | 331° |
| 2026-05-06 14:40 | -3.69128 | 105.10878 | 22869 ft | 462 kts | 331° |
| 2026-05-06 14:40 | -3.66325 | 105.09301 | 22874 ft | 462 kts | 331° |
| 2026-05-06 14:40 | -3.63521 | 105.07723 | 22874 ft | 463 kts | 331° |
| 2026-05-06 14:41 | -3.60707 | 105.06140 | 22882 ft | 463 kts | 331° |
| 2026-05-06 14:41 | -3.57900 | 105.04562 | 22873 ft | 464 kts | 331° |
| 2026-05-06 14:41 | -3.55085 | 105.02979 | 22871 ft | 464 kts | 331° |
| 2026-05-06 14:41 | -3.52265 | 105.01394 | 22868 ft | 464 kts | 331° |
| 2026-05-06 14:42 | -3.49454 | 104.99814 | 22870 ft | 464 kts | 331° |
| 2026-05-06 14:42 | -3.46629 | 104.98226 | 22871 ft | 464 kts | 331° |
| 2026-05-06 14:42 | -3.43817 | 104.96645 | 22873 ft | 464 kts | 331° |
| 2026-05-06 14:42 | -3.41001 | 104.95062 | 22874 ft | 464 kts | 331° |
| 2026-05-06 14:43 | -3.38185 | 104.93479 | 22875 ft | 464 kts | 331° |
| 2026-05-06 14:43 | -3.35368 | 104.91895 | 22875 ft | 464 kts | 331° |
| 2026-05-06 14:43 | -3.32555 | 104.90314 | 22863 ft | 464 kts | 331° |
| 2026-05-06 14:43 | -3.29739 | 104.88732 | 22871 ft | 463 kts | 331° |
| 2026-05-06 14:44 | -3.26930 | 104.87153 | 22869 ft | 463 kts | 331° |
| 2026-05-06 14:44 | -3.24122 | 104.85575 | 22866 ft | 463 kts | 331° |
| 2026-05-06 14:44 | -3.21352 | 104.84019 | 22869 ft | 462 kts | 331° |
| 2026-05-06 14:45 | -3.15751 | 104.80873 | 22874 ft | 462 kts | 331° |
| 2026-05-06 14:45 | -3.12912 | 104.79279 | 22877 ft | 461 kts | 331° |
| 2026-05-06 14:45 | -3.10149 | 104.77728 | 22875 ft | 461 kts | 331° |
| 2026-05-06 14:45 | -3.07352 | 104.76160 | 22878 ft | 461 kts | 331° |
| 2026-05-06 14:46 | -3.04551 | 104.74590 | 22881 ft | 461 kts | 331° |
| 2026-05-06 14:46 | -3.01755 | 104.73024 | 22889 ft | 461 kts | 331° |
| 2026-05-06 14:46 | -2.98951 | 104.71456 | 22888 ft | 461 kts | 331° |
| 2026-05-06 14:46 | -2.96154 | 104.69896 | 22886 ft | 461 kts | 331° |
| 2026-05-06 14:47 | -2.93349 | 104.68328 | 22884 ft | 462 kts | 331° |
| 2026-05-06 14:47 | -2.90551 | 104.66750 | 22876 ft | 462 kts | 331° |
| 2026-05-06 14:47 | -2.87817 | 104.65063 | 22900 ft | 463 kts | 324° |
| 2026-05-06 14:47 | -2.85357 | 104.62971 | 22886 ft | 465 kts | 316° |
| 2026-05-06 14:48 | -2.83063 | 104.60694 | 22872 ft | 465 kts | 315° |
| 2026-05-06 14:48 | -2.80783 | 104.58388 | 22861 ft | 465 kts | 315° |
| 2026-05-06 14:48 | -2.78510 | 104.56092 | 22854 ft | 465 kts | 315° |
| 2026-05-06 14:48 | -2.76220 | 104.53801 | 22857 ft | 465 kts | 315° |
| 2026-05-06 14:49 | -2.73923 | 104.51528 | 22854 ft | 465 kts | 315° |
| 2026-05-06 14:49 | -2.71616 | 104.49261 | 22864 ft | 465 kts | 316° |
| 2026-05-06 14:49 | -2.69303 | 104.47000 | 22867 ft | 465 kts | 316° |
| 2026-05-06 14:49 | -2.67035 | 104.44790 | 22856 ft | 465 kts | 316° |
| 2026-05-06 14:50 | -2.64711 | 104.42526 | 22874 ft | 465 kts | 316° |
| 2026-05-06 14:50 | -2.62427 | 104.40303 | 22862 ft | 465 kts | 316° |
| 2026-05-06 14:50 | -2.60077 | 104.38016 | 22861 ft | 465 kts | 316° |
| 2026-05-06 14:50 | -2.57759 | 104.35758 | 22874 ft | 465 kts | 316° |
| 2026-05-06 14:51 | -2.55455 | 104.33515 | 22869 ft | 465 kts | 316° |
| 2026-05-06 14:51 | -2.53133 | 104.31253 | 22869 ft | 464 kts | 316° |
| 2026-05-06 14:51 | -2.50817 | 104.28996 | 22872 ft | 464 kts | 316° |
| 2026-05-06 14:51 | -2.48503 | 104.26742 | 22880 ft | 464 kts | 316° |
| 2026-05-06 14:52 | -2.46189 | 104.24487 | 22869 ft | 464 kts | 316° |
| 2026-05-06 14:52 | -2.43878 | 104.22235 | 22873 ft | 464 kts | 316° |
| 2026-05-06 14:52 | -2.41568 | 104.19985 | 22873 ft | 464 kts | 316° |
| 2026-05-06 14:52 | -2.39273 | 104.17749 | 22877 ft | 464 kts | 316° |
| 2026-05-06 14:53 | -2.36965 | 104.15500 | 22872 ft | 464 kts | 316° |
| 2026-05-06 14:53 | -2.34650 | 104.13245 | 22873 ft | 464 kts | 316° |
| 2026-05-06 14:53 | -2.32344 | 104.10999 | 22880 ft | 464 kts | 316° |
| 2026-05-06 14:53 | -2.30047 | 104.08763 | 22880 ft | 464 kts | 316° |
| 2026-05-06 14:54 | -2.27737 | 104.06513 | 22880 ft | 464 kts | 316° |
| 2026-05-06 14:54 | -2.25451 | 104.04287 | 22875 ft | 464 kts | 316° |
| 2026-05-06 14:54 | -2.23109 | 104.02007 | 22879 ft | 464 kts | 316° |
| 2026-05-06 14:54 | -2.20830 | 103.99789 | 22881 ft | 464 kts | 316° |
| 2026-05-06 14:55 | -2.18518 | 103.97537 | 22880 ft | 464 kts | 316° |
| 2026-05-06 14:55 | -2.16200 | 103.95281 | 22874 ft | 464 kts | 316° |
| 2026-05-06 14:55 | -2.13890 | 103.93032 | 22878 ft | 464 kts | 316° |
| 2026-05-06 14:55 | -2.11572 | 103.90775 | 22881 ft | 464 kts | 316° |
| 2026-05-06 14:56 | -2.09259 | 103.88524 | 22884 ft | 464 kts | 316° |
| 2026-05-06 14:56 | -2.06946 | 103.86273 | 22884 ft | 464 kts | 316° |
| 2026-05-06 14:56 | -2.04630 | 103.84018 | 22877 ft | 465 kts | 316° |
| 2026-05-06 14:56 | -2.02313 | 103.81764 | 22882 ft | 465 kts | 316° |
| 2026-05-06 14:57 | -1.99998 | 103.79510 | 22885 ft | 465 kts | 316° |
| 2026-05-06 14:57 | -1.97683 | 103.77257 | 22887 ft | 465 kts | 316° |
| 2026-05-06 14:57 | -1.95364 | 103.75001 | 22889 ft | 465 kts | 316° |
| 2026-05-06 14:57 | -1.93056 | 103.72755 | 22881 ft | 465 kts | 316° |
| 2026-05-06 14:58 | -1.90732 | 103.70493 | 22891 ft | 465 kts | 316° |
| 2026-05-06 14:58 | -1.88417 | 103.68241 | 22880 ft | 465 kts | 316° |
| 2026-05-06 14:58 | -1.86103 | 103.65989 | 22891 ft | 465 kts | 316° |
| 2026-05-06 14:58 | -1.83787 | 103.63737 | 22883 ft | 465 kts | 316° |
| 2026-05-06 14:59 | -1.81466 | 103.61479 | 22885 ft | 465 kts | 316° |
| 2026-05-06 14:59 | -1.79151 | 103.59226 | 22890 ft | 465 kts | 316° |
| 2026-05-06 14:59 | -1.76833 | 103.56971 | 22875 ft | 465 kts | 316° |
| 2026-05-06 14:59 | -1.74517 | 103.54719 | 22885 ft | 465 kts | 316° |
| 2026-05-06 15:00 | -1.72201 | 103.52466 | 22879 ft | 465 kts | 316° |
| 2026-05-06 15:00 | -1.69880 | 103.50209 | 22882 ft | 465 kts | 316° |
| 2026-05-06 15:00 | -1.67571 | 103.47963 | 22888 ft | 465 kts | 316° |
| 2026-05-06 15:00 | -1.65253 | 103.45708 | 22897 ft | 465 kts | 316° |
| 2026-05-06 15:01 | -1.62933 | 103.43451 | 22888 ft | 465 kts | 316° |
| 2026-05-06 15:01 | -1.60613 | 103.41195 | 22887 ft | 465 kts | 316° |
| 2026-05-06 15:01 | -1.58293 | 103.38940 | 22894 ft | 465 kts | 316° |
| 2026-05-06 15:01 | -1.55974 | 103.36686 | 22884 ft | 465 kts | 316° |
| 2026-05-06 15:02 | -1.53652 | 103.34429 | 22882 ft | 465 kts | 316° |
| 2026-05-06 15:02 | -1.51336 | 103.32178 | 22882 ft | 465 kts | 316° |
| 2026-05-06 15:02 | -1.49013 | 103.29920 | 22895 ft | 465 kts | 316° |
| 2026-05-06 15:02 | -1.46714 | 103.27685 | 22892 ft | 466 kts | 316° |
| 2026-05-06 15:03 | -1.44393 | 103.25429 | 22894 ft | 465 kts | 316° |
| 2026-05-06 15:03 | -1.42075 | 103.23175 | 22891 ft | 465 kts | 316° |
| 2026-05-06 15:03 | -1.39752 | 103.20918 | 22883 ft | 465 kts | 316° |
| 2026-05-06 15:03 | -1.37433 | 103.18665 | 22890 ft | 465 kts | 316° |
| 2026-05-06 15:04 | -1.35114 | 103.16412 | 22892 ft | 465 kts | 316° |
| 2026-05-06 15:04 | -1.32795 | 103.14159 | 22892 ft | 465 kts | 316° |
| 2026-05-06 15:04 | -1.30506 | 103.11936 | 22892 ft | 464 kts | 316° |
| 2026-05-06 15:04 | -1.28176 | 103.09674 | 22894 ft | 464 kts | 316° |
| 2026-05-06 15:05 | -1.25860 | 103.07425 | 22893 ft | 464 kts | 316° |
| 2026-05-06 15:05 | -1.23540 | 103.05174 | 22892 ft | 464 kts | 316° |
| 2026-05-06 15:05 | -1.21253 | 103.02957 | 22890 ft | 464 kts | 316° |
| 2026-05-06 15:05 | -1.18940 | 103.00714 | 22900 ft | 464 kts | 316° |
| 2026-05-06 15:06 | -1.16593 | 102.98441 | 22900 ft | 464 kts | 316° |
| 2026-05-06 15:06 | -1.14300 | 102.96224 | 22897 ft | 464 kts | 316° |
| 2026-05-06 15:06 | -1.11981 | 102.93987 | 22903 ft | 464 kts | 316° |
| 2026-05-06 15:06 | -1.09665 | 102.91745 | 22895 ft | 464 kts | 315° |
| 2026-05-06 15:07 | -1.07348 | 102.89490 | 22894 ft | 465 kts | 315° |
| 2026-05-06 15:07 | -1.05036 | 102.87234 | 22895 ft | 465 kts | 315° |
| 2026-05-06 15:07 | -1.02728 | 102.84968 | 22895 ft | 465 kts | 315° |
| 2026-05-06 15:07 | -1.00419 | 102.82700 | 22888 ft | 466 kts | 315° |
| 2026-05-06 15:08 | -0.98111 | 102.80442 | 22899 ft | 466 kts | 315° |
| 2026-05-06 15:08 | -0.95789 | 102.78178 | 22894 ft | 466 kts | 315° |
| 2026-05-06 15:08 | -0.93466 | 102.75921 | 22899 ft | 466 kts | 315° |
| 2026-05-06 15:08 | -0.91142 | 102.73668 | 22899 ft | 466 kts | 315° |
| 2026-05-06 15:09 | -0.88812 | 102.71409 | 22886 ft | 466 kts | 315° |
| 2026-05-06 15:09 | -0.86484 | 102.69153 | 22884 ft | 465 kts | 315° |
| 2026-05-06 15:09 | -0.84160 | 102.66901 | 22887 ft | 465 kts | 315° |
| 2026-05-06 15:09 | -0.81830 | 102.64642 | 22895 ft | 465 kts | 315° |
| 2026-05-06 15:10 | -0.79513 | 102.62396 | 22894 ft | 465 kts | 315° |
| 2026-05-06 15:10 | -0.78053 | 102.60980 | 22893 ft | 465 kts | 315° |
| 2026-05-06 15:10 | -0.74910 | 102.57933 | 22896 ft | 465 kts | 315° |
| 2026-05-06 15:10 | -0.72584 | 102.55677 | 22878 ft | 465 kts | 315° |
| 2026-05-06 15:11 | -0.71029 | 102.54170 | 22883 ft | 466 kts | 315° |
| 2026-05-06 15:11 | -0.68701 | 102.51914 | 22883 ft | 466 kts | 315° |
| 2026-05-06 15:11 | -0.66370 | 102.49656 | 22879 ft | 467 kts | 316° |
| 2026-05-06 15:11 | -0.64034 | 102.47394 | 22875 ft | 468 kts | 316° |
| 2026-05-06 15:12 | -0.60938 | 102.44396 | 22882 ft | 468 kts | 316° |
| 2026-05-06 15:12 | -0.59361 | 102.42869 | 22870 ft | 468 kts | 316° |
| 2026-05-06 15:12 | -0.57028 | 102.40608 | 22871 ft | 468 kts | 316° |
| 2026-05-06 15:12 | -0.54677 | 102.38331 | 22878 ft | 468 kts | 316° |
| 2026-05-06 15:13 | -0.52345 | 102.36070 | 22884 ft | 468 kts | 316° |
| 2026-05-06 15:13 | -0.50007 | 102.33804 | 22875 ft | 468 kts | 316° |
| 2026-05-06 15:13 | -0.47674 | 102.31543 | 22862 ft | 468 kts | 316° |
| 2026-05-06 15:13 | -0.45336 | 102.29277 | 22872 ft | 467 kts | 316° |
| 2026-05-06 15:14 | -0.43007 | 102.27019 | 22869 ft | 467 kts | 316° |
| 2026-05-06 15:14 | -0.40673 | 102.24757 | 22871 ft | 467 kts | 316° |
| 2026-05-06 15:14 | -0.38343 | 102.22499 | 22863 ft | 467 kts | 316° |
| 2026-05-06 15:14 | -0.35971 | 102.20199 | 22865 ft | 467 kts | 316° |
| 2026-05-06 15:15 | -0.33637 | 102.17937 | 22877 ft | 467 kts | 316° |
| 2026-05-06 15:15 | -0.31304 | 102.15676 | 22857 ft | 468 kts | 316° |
| 2026-05-06 15:15 | -0.28968 | 102.13413 | 22859 ft | 468 kts | 316° |
| 2026-05-06 15:15 | -0.26629 | 102.11147 | 22859 ft | 468 kts | 316° |
| 2026-05-06 15:16 | -0.24294 | 102.08885 | 22857 ft | 468 kts | 316° |
| 2026-05-06 15:16 | -0.21959 | 102.06624 | 22858 ft | 468 kts | 316° |
| 2026-05-06 15:16 | -0.19627 | 102.04364 | 22869 ft | 468 kts | 316° |
| 2026-05-06 15:16 | -0.17286 | 102.02097 | 22852 ft | 468 kts | 316° |
| 2026-05-06 15:17 | -0.14949 | 101.99833 | 22867 ft | 468 kts | 316° |
| 2026-05-06 15:17 | -0.12613 | 101.97570 | 22862 ft | 468 kts | 316° |
| 2026-05-06 15:17 | -0.10293 | 101.95323 | 22861 ft | 467 kts | 316° |
| 2026-05-06 15:17 | -0.07976 | 101.93078 | 22850 ft | 467 kts | 316° |
| 2026-05-06 15:18 | -0.05646 | 101.90821 | 22853 ft | 467 kts | 316° |
| 2026-05-06 15:18 | -0.03310 | 101.88558 | 22856 ft | 467 kts | 316° |
| 2026-05-06 15:18 | -0.00980 | 101.86301 | 22859 ft | 467 kts | 316° |
| 2026-05-06 15:18 | 0.01350 | 101.84043 | 22861 ft | 467 kts | 316° |
| 2026-05-06 15:19 | 0.03684 | 101.81784 | 22847 ft | 467 kts | 316° |
| 2026-05-06 15:19 | 0.06015 | 101.79526 | 22846 ft | 467 kts | 316° |
| 2026-05-06 15:19 | 0.08355 | 101.77260 | 22854 ft | 467 kts | 316° |
| 2026-05-06 15:19 | 0.10682 | 101.75007 | 22850 ft | 467 kts | 316° |
| 2026-05-06 15:20 | 0.13014 | 101.72750 | 22841 ft | 467 kts | 316° |
| 2026-05-06 15:20 | 0.15332 | 101.70507 | 22844 ft | 467 kts | 316° |
| 2026-05-06 15:20 | 0.17665 | 101.68249 | 22854 ft | 467 kts | 316° |
| 2026-05-06 15:20 | 0.20001 | 101.65989 | 22857 ft | 467 kts | 316° |
| 2026-05-06 15:21 | 0.22341 | 101.63725 | 22855 ft | 468 kts | 316° |
| 2026-05-06 15:21 | 0.24675 | 101.61469 | 22851 ft | 468 kts | 316° |
| 2026-05-06 15:21 | 0.27007 | 101.59217 | 22855 ft | 468 kts | 316° |
| 2026-05-06 15:21 | 0.29352 | 101.56952 | 22849 ft | 468 kts | 316° |
| 2026-05-06 15:22 | 0.31690 | 101.54699 | 22858 ft | 468 kts | 316° |
| 2026-05-06 15:22 | 0.34027 | 101.52450 | 22856 ft | 467 kts | 316° |
| 2026-05-06 15:22 | 0.36370 | 101.50189 | 22852 ft | 467 kts | 316° |
| 2026-05-06 15:22 | 0.38672 | 101.47954 | 22858 ft | 467 kts | 316° |
| 2026-05-06 15:23 | 0.41247 | 101.45942 | 22836 ft | 464 kts | 331° |
| 2026-05-06 15:23 | 0.44222 | 101.44738 | 22873 ft | 460 kts | 346° |
| 2026-05-06 15:23 | 0.47329 | 101.44411 | 22880 ft | 456 kts | 5° |
| 2026-05-06 15:23 | 0.50527 | 101.44724 | 22864 ft | 455 kts | 7° |
| 2026-05-06 15:24 | 0.53645 | 101.45005 | 22848 ft | 456 kts | 6° |
| 2026-05-06 15:24 | 0.56848 | 101.45230 | 22849 ft | 457 kts | 5° |
| 2026-05-06 15:24 | 0.59986 | 101.45426 | 22851 ft | 457 kts | 5° |
| 2026-05-06 15:24 | 0.63194 | 101.45621 | 22849 ft | 457 kts | 5° |
| 2026-05-06 15:25 | 0.66379 | 101.45819 | 22841 ft | 457 kts | 5° |
| 2026-05-06 15:25 | 0.69546 | 101.46022 | 22843 ft | 457 kts | 5° |
| 2026-05-06 15:25 | 0.72718 | 101.46231 | 22841 ft | 457 kts | 5° |
| 2026-05-06 15:25 | 0.75892 | 101.46444 | 22840 ft | 456 kts | 5° |
| 2026-05-06 15:26 | 0.79063 | 101.46658 | 22843 ft | 456 kts | 5° |
| 2026-05-06 15:26 | 0.82221 | 101.46873 | 22844 ft | 456 kts | 5° |
| 2026-05-06 15:26 | 0.85396 | 101.47089 | 22837 ft | 456 kts | 5° |
| 2026-05-06 15:26 | 0.88555 | 101.47304 | 22841 ft | 456 kts | 5° |
| 2026-05-06 15:27 | 0.91724 | 101.47520 | 22845 ft | 456 kts | 5° |
| 2026-05-06 15:27 | 0.94874 | 101.47734 | 22835 ft | 456 kts | 5° |
| 2026-05-06 15:27 | 0.98046 | 101.47949 | 22846 ft | 456 kts | 5° |
| 2026-05-06 15:27 | 1.01212 | 101.48165 | 22848 ft | 456 kts | 5° |
| 2026-05-06 15:28 | 1.04379 | 101.48380 | 22849 ft | 456 kts | 5° |
| 2026-05-06 15:28 | 1.07521 | 101.48593 | 22840 ft | 453 kts | 5° |
| 2026-05-06 15:28 | 1.10660 | 101.48805 | 22838 ft | 447 kts | 5° |
| 2026-05-06 15:28 | 1.13794 | 101.49017 | 22849 ft | 444 kts | 5° |
| 2026-05-06 15:29 | 1.16843 | 101.49224 | 22861 ft | 446 kts | 5° |
| 2026-05-06 15:29 | 1.19946 | 101.49435 | 22850 ft | 447 kts | 5° |
| 2026-05-06 15:29 | 1.23051 | 101.49646 | 22859 ft | 448 kts | 5° |
| 2026-05-06 15:29 | 1.26160 | 101.49858 | 22852 ft | 448 kts | 5° |
| 2026-05-06 15:30 | 1.29314 | 101.50072 | 22849 ft | 448 kts | 5° |
| 2026-05-06 15:30 | 1.32381 | 101.50281 | 22856 ft | 447 kts | 5° |
| 2026-05-06 15:30 | 1.35481 | 101.50491 | 22848 ft | 447 kts | 5° |
| 2026-05-06 15:30 | 1.38584 | 101.50702 | 22858 ft | 447 kts | 5° |
| 2026-05-06 15:31 | 1.41670 | 101.50912 | 22859 ft | 446 kts | 5° |
| 2026-05-06 15:31 | 1.44808 | 101.51125 | 22851 ft | 446 kts | 5° |
| 2026-05-06 15:31 | 1.47907 | 101.51336 | 22789 ft | 447 kts | 5° |
| 2026-05-06 15:32 | 1.54084 | 101.51756 | 22458 ft | 443 kts | 6° |
| 2026-05-06 15:32 | 1.57113 | 101.51962 | 22301 ft | 442 kts | 6° |
| 2026-05-06 15:32 | 1.60216 | 101.52173 | 22138 ft | 441 kts | 6° |
| 2026-05-06 15:32 | 1.63237 | 101.52379 | 21983 ft | 440 kts | 6° |
| 2026-05-06 15:33 | 1.66288 | 101.52586 | 21894 ft | 440 kts | 6° |
| 2026-05-06 15:33 | 1.69379 | 101.52797 | 21868 ft | 439 kts | 6° |
| 2026-05-06 15:33 | 1.72385 | 101.53001 | 21864 ft | 438 kts | 6° |
| 2026-05-06 15:33 | 1.75464 | 101.53211 | 21862 ft | 439 kts | 6° |
| 2026-05-06 15:34 | 1.78474 | 101.53416 | 21864 ft | 439 kts | 6° |
| 2026-05-06 15:34 | 1.81512 | 101.53623 | 21868 ft | 439 kts | 6° |
| 2026-05-06 15:34 | 1.84562 | 101.53830 | 21868 ft | 439 kts | 6° |
| 2026-05-06 15:34 | 1.87604 | 101.54038 | 21866 ft | 439 kts | 6° |
| 2026-05-06 15:35 | 1.90652 | 101.54246 | 21870 ft | 438 kts | 6° |
| 2026-05-06 15:35 | 1.93688 | 101.54453 | 21867 ft | 438 kts | 6° |
| 2026-05-06 15:35 | 1.96732 | 101.54661 | 21870 ft | 438 kts | 6° |
| 2026-05-06 15:35 | 1.99761 | 101.54868 | 21871 ft | 437 kts | 6° |
| 2026-05-06 15:36 | 2.02804 | 101.55077 | 21872 ft | 437 kts | 6° |
| 2026-05-06 15:36 | 2.05834 | 101.55283 | 21871 ft | 437 kts | 6° |
| 2026-05-06 15:36 | 2.08888 | 101.55510 | 21867 ft | 436 kts | 9° |
| 2026-05-06 15:36 | 2.11785 | 101.56314 | 21894 ft | 431 kts | 23° |
| 2026-05-06 15:37 | 2.14670 | 101.57110 | 21869 ft | 436 kts | 9° |
| 2026-05-06 15:37 | 2.17651 | 101.57448 | 21875 ft | 435 kts | 11° |
| 2026-05-06 15:37 | 2.20526 | 101.58327 | 21864 ft | 431 kts | 30° |
| 2026-05-06 15:37 | 2.22866 | 101.60203 | 21883 ft | 426 kts | 52° |
| 2026-05-06 15:38 | 2.24314 | 101.62732 | 21900 ft | 423 kts | 69° |
| 2026-05-06 15:38 | 2.25313 | 101.65501 | 21891 ft | 424 kts | 71° |
| 2026-05-06 15:38 | 2.26283 | 101.68295 | 21874 ft | 424 kts | 71° |
| 2026-05-06 15:38 | 2.27291 | 101.71058 | 21858 ft | 423 kts | 70° |
| 2026-05-06 15:39 | 2.28358 | 101.73798 | 21830 ft | 423 kts | 69° |
| 2026-05-06 15:39 | 2.29491 | 101.76561 | 21819 ft | 423 kts | 68° |
| 2026-05-06 15:39 | 2.30624 | 101.79237 | 21805 ft | 424 kts | 67° |
| 2026-05-06 15:39 | 2.31787 | 101.81943 | 21798 ft | 424 kts | 67° |
| 2026-05-06 15:40 | 2.32956 | 101.84640 | 21786 ft | 423 kts | 67° |
| 2026-05-06 15:40 | 2.34127 | 101.87339 | 21772 ft | 423 kts | 67° |
| 2026-05-06 15:40 | 2.35324 | 101.90105 | 21606 ft | 434 kts | 67° |
| 2026-05-06 15:40 | 2.36520 | 101.92875 | 21369 ft | 446 kts | 67° |
| 2026-05-06 15:41 | 2.37756 | 101.95742 | 21130 ft | 452 kts | 67° |
| 2026-05-06 15:41 | 2.39014 | 101.98660 | 20878 ft | 448 kts | 67° |
| 2026-05-06 15:41 | 2.40224 | 102.01465 | 20639 ft | 443 kts | 67° |
| 2026-05-06 15:41 | 2.41457 | 102.04319 | 20401 ft | 441 kts | 67° |
| 2026-05-06 15:42 | 2.42654 | 102.07091 | 20169 ft | 439 kts | 67° |
| 2026-05-06 15:42 | 2.43863 | 102.09891 | 19951 ft | 438 kts | 67° |
| 2026-05-06 15:42 | 2.45069 | 102.12688 | 19720 ft | 438 kts | 67° |
| 2026-05-06 15:42 | 2.45882 | 102.14573 | 19566 ft | 437 kts | 67° |
| 2026-05-06 15:43 | 2.47087 | 102.17367 | 19339 ft | 437 kts | 67° |
| 2026-05-06 15:43 | 2.47882 | 102.19211 | 19190 ft | 437 kts | 67° |
| 2026-05-06 15:43 | 2.49490 | 102.22938 | 18902 ft | 436 kts | 67° |
| 2026-05-06 15:43 | 2.50699 | 102.25726 | 18681 ft | 435 kts | 66° |
| 2026-05-06 15:44 | 2.52329 | 102.28260 | 18425 ft | 437 kts | 47° |
| 2026-05-06 15:44 | 2.54727 | 102.30147 | 18229 ft | 437 kts | 31° |
| 2026-05-06 15:44 | 2.57511 | 102.31273 | 17983 ft | 439 kts | 15° |
| 2026-05-06 15:44 | 2.60589 | 102.31609 | 17676 ft | 439 kts | 0° |